Time,TemperatureF,DewpointF,PressureIn,WindDirection,WindDirectionDegrees,WindSpeedMPH,WindSpeedGustMPH,Humidity,HourlyPrecipIn,Conditions,Clouds,dailyrainin,SoftwareType,DateUTC
2015-03-06 00:22:00,5.0,2.0,-100.00,East,85,0.0,0.0,86,0.00,,,-99.99,,2015-03-06 05:22:00,
2015-03-06 00:52:00,6.0,2.0,-100.00,East,80,0.0,0.0,85,0.00,,,-99.99,,2015-03-06 05:52:00,
2015-03-06 01:23:00,4.0,1.0,-100.00,ESE,110,0.0,0.0,87,0.00,,,-99.99,,2015-03-06 06:23:00,
2015-03-06 01:52:00,4.0,3.0,-100.00,East,95,0.0,0.0,92,0.00,,,-99.99,,2015-03-06 06:52:00,
2015-03-06 02:01:00,2.0,1.0,-100.00,ESE,105,0.0,0.0,93,0.00,,,-99.99,,2015-03-06 07:01:00,
2015-03-06 02:12:00,2.0,-1.0,-100.00,East,100,0.0,0.0,89,0.00,,,-99.99,,2015-03-06 07:12:00,
2015-03-06 02:22:00,2.0,1.0,-100.00,ESE,105,0.0,0.0,93,0.00,,,-99.99,,2015-03-06 07:22:00,
2015-03-06 02:32:00,2.0,1.0,-100.00,ESE,105,0.0,0.0,93,0.00,,,-99.99,,2015-03-06 07:32:00,
2015-03-06 02:42:00,2.0,1.0,-100.00,ESE,105,0.0,0.0,93,0.00,,,-99.99,,2015-03-06 07:42:00,
2015-03-06 02:52:00,2.0,1.0,-100.00,ESE,105,0.0,0.0,93,0.00,,,-99.99,,2015-03-06 07:52:00,
2015-03-06 03:52:00,-1.0,-3.0,-100.00,SE,140,0.0,0.0,94,0.00,,,-99.99,,2015-03-06 08:52:00,
2015-03-06 04:22:00,2.0,0.0,-100.00,SE,145,0.0,0.0,93,0.00,,,-99.99,,2015-03-06 09:22:00,
2015-03-06 04:53:00,0.0,-2.0,-100.00,ESE,115,0.0,0.0,91,0.00,,,-99.99,,2015-03-06 09:53:00,
2015-03-06 05:23:00,0.0,-3.0,-100.00,NNE,30,0.0,0.0,90,0.00,,,-99.99,,2015-03-06 10:23:00,
2015-03-06 05:53:00,-1.0,-3.0,-100.00,East,80,0.0,0.0,89,0.00,,,-99.99,,2015-03-06 10:53:00,
2015-03-06 06:22:00,-2.0,-5.0,-100.00,ESE,115,0.0,0.0,87,0.00,,,-99.99,,2015-03-06 11:22:00,
2015-03-06 06:52:00,-1.0,-3.0,-100.00,SE,125,0.0,0.0,89,0.00,,,-99.99,,2015-03-06 11:52:00,
2015-03-06 07:22:00,-2.0,-5.0,-100.00,ENE,75,0.0,0.0,87,0.00,,,-99.99,,2015-03-06 12:22:00,
2015-03-06 07:52:00,2.0,-1.0,-100.00,ENE,60,0.0,0.0,89,0.00,,,-99.99,,2015-03-06 12:52:00,
2015-03-06 08:22:00,4.0,1.0,-100.00,ESE,115,0.0,0.0,84,0.00,,,-99.99,,2015-03-06 13:22:00,
2015-03-06 08:52:00,8.0,3.0,-100.00,ENE,75,0.0,2.0,79,0.00,,,-99.99,,2015-03-06 13:52:00,
2015-03-06 09:22:00,12.0,4.0,-100.00,NE,45,0.0,4.0,70,0.00,,,-99.99,,2015-03-06 14:22:00,
2015-03-06 09:52:00,14.0,4.0,-100.00,ENE,75,3.0,7.0,63,0.00,,,-99.99,,2015-03-06 14:52:00,
2015-03-06 10:22:00,15.0,4.0,-100.00,ENE,60,4.0,9.0,59,0.00,,,-99.99,,2015-03-06 15:22:00,
2015-03-06 10:54:00,17.0,4.0,-100.00,ENE,70,7.0,12.0,56,0.00,,,-99.99,,2015-03-06 15:54:00,
2015-03-06 11:23:00,17.0,4.0,-100.00,ENE,75,5.0,9.0,56,0.00,,,-99.99,,2015-03-06 16:23:00,
2015-03-06 11:53:00,18.0,5.0,-100.00,NNE,30,7.0,12.0,56,0.00,,,-99.99,,2015-03-06 16:53:00,
2015-03-06 12:23:00,18.0,4.0,-100.00,ENE,65,9.0,14.0,54,0.00,,,-99.99,,2015-03-06 17:23:00,
2015-03-06 12:52:00,19.0,5.0,-100.00,ENE,60,6.0,12.0,53,0.00,,,-99.99,,2015-03-06 17:52:00,